Koppie Airport

Jump to: basic info | weather | runways | comments

Related pages: nearby airports | nearby navaids | notams | map

Basic information (top)

Codes: 7IS5
Location: lon 42.121399, lat -88.378098, elev 890 ft / 271 m msl
Status: small_airport

Weather (top)

Current conditions for Dupage Airport 14nm (26km) SSE (rec'd 2014/04/24 17:52Z):

KDPA 241752Z 14021G26KT 10SM CLR 16/02 A2985 RMK AO2 PK WND 15031/1720 SLP111 T01610022 10178 20061 58027

Airport forecast for Dupage Airport 14nm (26km) SSE (rec'd 2014/04/24 18:36Z):

TAF KDPA 241734Z 2418/2518 15018G27KT P6SM BKN120 
     FM250300 14011KT P6SM VCSH BKN060 
     FM250500 08007KT 5SM -SHRA SCT007 OVC015 
     FM250900 34010KT P6SM BKN020 
     FM251300 33010G17KT P6SM SCT040

Runways (top)

N/S: 2,300 x 100 ft (701 x 30 m) — grass — not lighted

Latest comments (top)

No comments yet for Koppie Airport

More... (top)

See also NOTAMs and nearby airports and navaids, or visit the Koppie Airport page at the main OurAirports website..